sensor_id;sensor_type;location;lat;lon;timestamp;temperature;humidity
23731;DHT22;12046;44.702;10.622;2022-12-07T00:01:10;7.70;99.90
23731;DHT22;12046;44.702;10.622;2022-12-07T00:03:37;7.60;99.90
23731;DHT22;12046;44.702;10.622;2022-12-07T00:06:05;7.50;99.90
23731;DHT22;12046;44.702;10.622;2022-12-07T00:08:32;7.50;99.90
23731;DHT22;12046;44.702;10.622;2022-12-07T00:11:10;7.50;99.90
23731;DHT22;12046;44.702;10.622;2022-12-07T00:13:37;7.50;99.90
23731;DHT22;12046;44.702;10.622;2022-12-07T00:16:06;7.50;99.90
23731;DHT22;12046;44.702;10.622;2022-12-07T00:18:33;7.60;99.90
23731;DHT22;12046;44.702;10.622;2022-12-07T00:21:09;7.60;99.90
23731;DHT22;12046;44.702;10.622;2022-12-07T00:23:35;7.70;99.90
23731;DHT22;12046;44.702;10.622;2022-12-07T00:26:22;7.70;99.90
23731;DHT22;12046;44.702;10.622;2022-12-07T00:28:50;7.70;99.90
23731;DHT22;12046;44.702;10.622;2022-12-07T00:31:18;7.70;99.90
23731;DHT22;12046;44.702;10.622;2022-12-07T00:33:45;7.70;99.90
23731;DHT22;12046;44.702;10.622;2022-12-07T00:36:14;7.70;99.90
23731;DHT22;12046;44.702;10.622;2022-12-07T00:38:41;7.50;99.90
23731;DHT22;12046;44.702;10.622;2022-12-07T00:43:38;7.40;99.90
23731;DHT22;12046;44.702;10.622;2022-12-07T00:46:04;7.40;99.90
23731;DHT22;12046;44.702;10.622;2022-12-07T00:48:31;7.40;99.90
23731;DHT22;12046;44.702;10.622;2022-12-07T00:50:58;7.40;99.90
23731;DHT22;12046;44.702;10.622;2022-12-07T00:53:24;7.30;99.90
23731;DHT22;12046;44.702;10.622;2022-12-07T00:55:50;7.30;99.90
23731;DHT22;12046;44.702;10.622;2022-12-07T00:58:18;7.20;99.90
23731;DHT22;12046;44.702;10.622;2022-12-07T01:00:44;7.20;99.90
23731;DHT22;12046;44.702;10.622;2022-12-07T01:03:12;7.20;99.90
23731;DHT22;12046;44.702;10.622;2022-12-07T01:05:39;7.30;99.90
23731;DHT22;12046;44.702;10.622;2022-12-07T01:08:06;7.30;99.90
23731;DHT22;12046;44.702;10.622;2022-12-07T01:10:32;7.30;99.90
23731;DHT22;12046;44.702;10.622;2022-12-07T01:12:59;7.30;99.90
23731;DHT22;12046;44.702;10.622;2022-12-07T01:15:25;7.30;99.90
23731;DHT22;12046;44.702;10.622;2022-12-07T01:17:51;7.30;99.90
23731;DHT22;12046;44.702;10.622;2022-12-07T01:20:17;7.30;99.90
23731;DHT22;12046;44.702;10.622;2022-12-07T01:22:44;7.40;99.90
23731;DHT22;12046;44.702;10.622;2022-12-07T01:25:11;7.40;99.90
23731;DHT22;12046;44.702;10.622;2022-12-07T01:27:37;7.50;99.90
23731;DHT22;12046;44.702;10.622;2022-12-07T01:30:06;7.50;99.90
23731;DHT22;12046;44.702;10.622;2022-12-07T01:32:33;7.50;99.90
23731;DHT22;12046;44.702;10.622;2022-12-07T01:34:59;7.50;99.90
23731;DHT22;12046;44.702;10.622;2022-12-07T01:37:25;7.60;99.90
23731;DHT22;12046;44.702;10.622;2022-12-07T01:39:51;7.60;99.90
23731;DHT22;12046;44.702;10.622;2022-12-07T01:42:18;7.70;99.90
23731;DHT22;12046;44.702;10.622;2022-12-07T01:47:53;7.70;99.90
23731;DHT22;12046;44.702;10.622;2022-12-07T01:50:21;7.70;99.90
23731;DHT22;12046;44.702;10.622;2022-12-07T01:52:51;7.70;99.90
23731;DHT22;12046;44.702;10.622;2022-12-07T01:55:17;7.70;99.90
23731;DHT22;12046;44.702;10.622;2022-12-07T01:57:47;7.60;99.90
23731;DHT22;12046;44.702;10.622;2022-12-07T02:00:14;7.70;99.90
23731;DHT22;12046;44.702;10.622;2022-12-07T02:02:53;7.70;99.90
23731;DHT22;12046;44.702;10.622;2022-12-07T02:05:22;7.70;99.90
23731;DHT22;12046;44.702;10.622;2022-12-07T02:07:49;7.60;99.90
23731;DHT22;12046;44.702;10.622;2022-12-07T02:10:25;7.60;99.90
23731;DHT22;12046;44.702;10.622;2022-12-07T02:13:04;7.50;99.90
23731;DHT22;12046;44.702;10.622;2022-12-07T02:18:13;7.20;99.90
23731;DHT22;12046;44.702;10.622;2022-12-07T02:26:14;7.30;99.90
23731;DHT22;12046;44.702;10.622;2022-12-07T02:29:10;7.30;99.90
23731;DHT22;12046;44.702;10.622;2022-12-07T02:31:53;7.30;99.90
23731;DHT22;12046;44.702;10.622;2022-12-07T02:37:51;7.30;99.90
23731;DHT22;12046;44.702;10.622;2022-12-07T02:40:33;7.40;99.90
23731;DHT22;12046;44.702;10.622;2022-12-07T02:43:24;7.40;99.90
23731;DHT22;12046;44.702;10.622;2022-12-07T02:45:53;7.50;99.90
23731;DHT22;12046;44.702;10.622;2022-12-07T02:48:20;7.50;99.90
23731;DHT22;12046;44.702;10.622;2022-12-07T02:50:52;7.60;99.90
23731;DHT22;12046;44.702;10.622;2022-12-07T02:53:51;7.60;99.90
23731;DHT22;12046;44.702;10.622;2022-12-07T02:56:39;7.60;99.90
23731;DHT22;12046;44.702;10.622;2022-12-07T02:59:34;7.60;99.90
23731;DHT22;12046;44.702;10.622;2022-12-07T03:10:55;7.50;99.90
23731;DHT22;12046;44.702;10.622;2022-12-07T03:13:42;7.40;99.90
23731;DHT22;12046;44.702;10.622;2022-12-07T03:16:26;7.40;99.90
23731;DHT22;12046;44.702;10.622;2022-12-07T03:18:55;7.50;99.90
23731;DHT22;12046;44.702;10.622;2022-12-07T03:21:27;7.50;99.90
23731;DHT22;12046;44.702;10.622;2022-12-07T03:23:56;7.50;99.90
23731;DHT22;12046;44.702;10.622;2022-12-07T03:26:31;7.50;99.90
23731;DHT22;12046;44.702;10.622;2022-12-07T03:29:02;7.40;99.90
23731;DHT22;12046;44.702;10.622;2022-12-07T03:31:33;7.30;99.90
23731;DHT22;12046;44.702;10.622;2022-12-07T03:37:08;7.20;99.90
23731;DHT22;12046;44.702;10.622;2022-12-07T03:39:45;7.20;99.90
23731;DHT22;12046;44.702;10.622;2022-12-07T03:42:13;7.30;99.90
23731;DHT22;12046;44.702;10.622;2022-12-07T03:44:39;7.30;99.90
23731;DHT22;12046;44.702;10.622;2022-12-07T03:47:26;7.30;99.90
23731;DHT22;12046;44.702;10.622;2022-12-07T03:52:36;7.20;99.90
23731;DHT22;12046;44.702;10.622;2022-12-07T03:55:36;7.10;99.90
23731;DHT22;12046;44.702;10.622;2022-12-07T03:58:11;7.00;99.90
23731;DHT22;12046;44.702;10.622;2022-12-07T04:00:37;7.00;99.90
23731;DHT22;12046;44.702;10.622;2022-12-07T04:03:03;7.10;99.90
23731;DHT22;12046;44.702;10.622;2022-12-07T04:05:30;7.10;99.90
23731;DHT22;12046;44.702;10.622;2022-12-07T04:07:56;7.20;99.90
23731;DHT22;12046;44.702;10.622;2022-12-07T04:10:22;7.20;99.90
23731;DHT22;12046;44.702;10.622;2022-12-07T04:12:48;7.30;99.90
23731;DHT22;12046;44.702;10.622;2022-12-07T04:15:13;7.40;99.90
23731;DHT22;12046;44.702;10.622;2022-12-07T04:17:39;7.40;99.90
23731;DHT22;12046;44.702;10.622;2022-12-07T04:20:06;7.40;99.90
23731;DHT22;12046;44.702;10.622;2022-12-07T04:22:33;7.50;99.90
23731;DHT22;12046;44.702;10.622;2022-12-07T04:24:59;7.50;99.90
23731;DHT22;12046;44.702;10.622;2022-12-07T04:27:25;7.50;99.90
23731;DHT22;12046;44.702;10.622;2022-12-07T04:29:51;7.40;99.90
23731;DHT22;12046;44.702;10.622;2022-12-07T04:32:16;7.40;99.90
23731;DHT22;12046;44.702;10.622;2022-12-07T04:34:42;7.40;99.90
23731;DHT22;12046;44.702;10.622;2022-12-07T04:37:08;7.40;99.90
23731;DHT22;12046;44.702;10.622;2022-12-07T04:39:34;7.40;99.90
23731;DHT22;12046;44.702;10.622;2022-12-07T04:42:01;7.30;99.90
23731;DHT22;12046;44.702;10.622;2022-12-07T04:44:28;7.30;99.90
23731;DHT22;12046;44.702;10.622;2022-12-07T04:46:54;7.20;99.90
23731;DHT22;12046;44.702;10.622;2022-12-07T04:49:21;7.20;99.90
23731;DHT22;12046;44.702;10.622;2022-12-07T04:51:47;7.20;99.90
23731;DHT22;12046;44.702;10.622;2022-12-07T04:54:14;7.20;99.90
23731;DHT22;12046;44.702;10.622;2022-12-07T04:56:40;7.20;99.90
23731;DHT22;12046;44.702;10.622;2022-12-07T04:59:07;7.20;99.90
23731;DHT22;12046;44.702;10.622;2022-12-07T05:01:34;7.30;99.90
23731;DHT22;12046;44.702;10.622;2022-12-07T05:04:00;7.20;99.90
23731;DHT22;12046;44.702;10.622;2022-12-07T05:06:26;7.20;99.90
23731;DHT22;12046;44.702;10.622;2022-12-07T05:08:52;7.20;99.90
23731;DHT22;12046;44.702;10.622;2022-12-07T05:11:18;7.20;99.90
23731;DHT22;12046;44.702;10.622;2022-12-07T05:14:04;7.20;99.90
23731;DHT22;12046;44.702;10.622;2022-12-07T05:16:31;7.20;99.90
23731;DHT22;12046;44.702;10.622;2022-12-07T05:18:58;7.30;99.90
23731;DHT22;12046;44.702;10.622;2022-12-07T05:21:24;7.20;99.90
23731;DHT22;12046;44.702;10.622;2022-12-07T05:23:50;7.20;99.90
23731;DHT22;12046;44.702;10.622;2022-12-07T05:26:16;7.20;99.90
23731;DHT22;12046;44.702;10.622;2022-12-07T05:28:43;7.20;99.90
23731;DHT22;12046;44.702;10.622;2022-12-07T05:31:09;7.20;99.90
23731;DHT22;12046;44.702;10.622;2022-12-07T05:33:35;7.20;99.90
23731;DHT22;12046;44.702;10.622;2022-12-07T05:36:01;7.10;99.90
23731;DHT22;12046;44.702;10.622;2022-12-07T05:38:33;7.10;99.90
23731;DHT22;12046;44.702;10.622;2022-12-07T05:41:03;7.10;99.90
23731;DHT22;12046;44.702;10.622;2022-12-07T05:43:30;7.10;99.90
23731;DHT22;12046;44.702;10.622;2022-12-07T05:45:57;7.10;99.90
23731;DHT22;12046;44.702;10.622;2022-12-07T05:48:23;7.10;99.90
23731;DHT22;12046;44.702;10.622;2022-12-07T05:50:50;7.10;99.90
23731;DHT22;12046;44.702;10.622;2022-12-07T05:53:16;7.10;99.90
23731;DHT22;12046;44.702;10.622;2022-12-07T05:55:43;7.10;99.90
23731;DHT22;12046;44.702;10.622;2022-12-07T05:58:09;7.10;99.90
23731;DHT22;12046;44.702;10.622;2022-12-07T06:00:57;7.00;99.90
23731;DHT22;12046;44.702;10.622;2022-12-07T06:03:23;7.00;99.90
23731;DHT22;12046;44.702;10.622;2022-12-07T06:05:49;7.00;99.90
23731;DHT22;12046;44.702;10.622;2022-12-07T06:08:15;7.00;99.90
23731;DHT22;12046;44.702;10.622;2022-12-07T06:10:41;7.00;99.90
23731;DHT22;12046;44.702;10.622;2022-12-07T06:13:08;7.00;99.90
23731;DHT22;12046;44.702;10.622;2022-12-07T06:15:38;7.00;99.90
23731;DHT22;12046;44.702;10.622;2022-12-07T06:18:04;7.00;99.90
23731;DHT22;12046;44.702;10.622;2022-12-07T06:20:30;7.10;99.90
23731;DHT22;12046;44.702;10.622;2022-12-07T06:22:56;7.00;99.90
23731;DHT22;12046;44.702;10.622;2022-12-07T06:25:22;7.00;99.90
23731;DHT22;12046;44.702;10.622;2022-12-07T06:27:48;7.00;99.90
23731;DHT22;12046;44.702;10.622;2022-12-07T06:30:14;7.00;99.90
23731;DHT22;12046;44.702;10.622;2022-12-07T06:32:40;6.90;99.90
23731;DHT22;12046;44.702;10.622;2022-12-07T06:35:06;6.90;99.90
23731;DHT22;12046;44.702;10.622;2022-12-07T06:37:32;7.00;99.90
23731;DHT22;12046;44.702;10.622;2022-12-07T06:39:58;6.90;99.90
23731;DHT22;12046;44.702;10.622;2022-12-07T06:42:24;6.90;99.90
23731;DHT22;12046;44.702;10.622;2022-12-07T06:44:49;6.90;99.90
23731;DHT22;12046;44.702;10.622;2022-12-07T06:47:16;6.80;99.90
23731;DHT22;12046;44.702;10.622;2022-12-07T06:49:42;6.80;99.90
23731;DHT22;12046;44.702;10.622;2022-12-07T06:52:08;6.80;99.90
23731;DHT22;12046;44.702;10.622;2022-12-07T06:54:34;6.80;99.90
23731;DHT22;12046;44.702;10.622;2022-12-07T06:57:00;6.80;99.90
23731;DHT22;12046;44.702;10.622;2022-12-07T06:59:26;6.90;99.90
23731;DHT22;12046;44.702;10.622;2022-12-07T07:01:52;6.90;99.90
23731;DHT22;12046;44.702;10.622;2022-12-07T07:04:18;6.90;99.90
23731;DHT22;12046;44.702;10.622;2022-12-07T07:06:43;6.90;99.90
23731;DHT22;12046;44.702;10.622;2022-12-07T07:09:09;6.90;99.90
23731;DHT22;12046;44.702;10.622;2022-12-07T07:11:35;6.90;99.90
23731;DHT22;12046;44.702;10.622;2022-12-07T07:14:01;6.90;99.90
23731;DHT22;12046;44.702;10.622;2022-12-07T07:16:31;6.90;99.90
23731;DHT22;12046;44.702;10.622;2022-12-07T07:18:57;6.90;99.90
23731;DHT22;12046;44.702;10.622;2022-12-07T07:21:23;6.90;99.90
23731;DHT22;12046;44.702;10.622;2022-12-07T07:23:49;6.90;99.90
23731;DHT22;12046;44.702;10.622;2022-12-07T07:26:15;7.00;99.90
23731;DHT22;12046;44.702;10.622;2022-12-07T07:28:41;7.00;99.90
23731;DHT22;12046;44.702;10.622;2022-12-07T07:31:07;7.00;99.90
23731;DHT22;12046;44.702;10.622;2022-12-07T07:33:33;7.00;99.90
23731;DHT22;12046;44.702;10.622;2022-12-07T07:35:59;7.00;99.90
23731;DHT22;12046;44.702;10.622;2022-12-07T07:38:24;7.10;99.90
23731;DHT22;12046;44.702;10.622;2022-12-07T07:40:50;7.10;99.90
23731;DHT22;12046;44.702;10.622;2022-12-07T07:43:16;7.10;99.90
23731;DHT22;12046;44.702;10.622;2022-12-07T07:45:42;7.20;99.90
23731;DHT22;12046;44.702;10.622;2022-12-07T07:48:09;7.20;99.90
23731;DHT22;12046;44.702;10.622;2022-12-07T07:50:35;7.20;99.90
23731;DHT22;12046;44.702;10.622;2022-12-07T07:53:01;7.20;99.90
23731;DHT22;12046;44.702;10.622;2022-12-07T07:55:27;7.30;99.90
23731;DHT22;12046;44.702;10.622;2022-12-07T07:57:54;7.30;99.90
23731;DHT22;12046;44.702;10.622;2022-12-07T08:00:20;7.30;99.90
23731;DHT22;12046;44.702;10.622;2022-12-07T08:02:46;7.40;99.90
23731;DHT22;12046;44.702;10.622;2022-12-07T08:05:13;7.50;99.90
23731;DHT22;12046;44.702;10.622;2022-12-07T08:07:39;7.60;99.90
23731;DHT22;12046;44.702;10.622;2022-12-07T08:10:06;7.60;99.90
23731;DHT22;12046;44.702;10.622;2022-12-07T08:12:36;7.70;99.90
23731;DHT22;12046;44.702;10.622;2022-12-07T08:15:03;7.70;99.90
23731;DHT22;12046;44.702;10.622;2022-12-07T08:17:29;7.70;99.90
23731;DHT22;12046;44.702;10.622;2022-12-07T08:19:55;7.70;99.90
23731;DHT22;12046;44.702;10.622;2022-12-07T08:22:22;7.80;99.90
23731;DHT22;12046;44.702;10.622;2022-12-07T08:24:48;7.80;99.90
23731;DHT22;12046;44.702;10.622;2022-12-07T08:27:14;7.80;99.90
23731;DHT22;12046;44.702;10.622;2022-12-07T08:29:40;7.80;99.90
23731;DHT22;12046;44.702;10.622;2022-12-07T08:32:06;7.80;99.90
23731;DHT22;12046;44.702;10.622;2022-12-07T08:34:35;7.80;99.90
23731;DHT22;12046;44.702;10.622;2022-12-07T08:37:02;7.90;99.90
23731;DHT22;12046;44.702;10.622;2022-12-07T08:39:28;7.90;99.90
23731;DHT22;12046;44.702;10.622;2022-12-07T08:41:54;8.00;99.90
23731;DHT22;12046;44.702;10.622;2022-12-07T08:44:23;8.10;99.90
23731;DHT22;12046;44.702;10.622;2022-12-07T08:46:56;8.10;99.90
23731;DHT22;12046;44.702;10.622;2022-12-07T08:49:27;8.30;99.90
23731;DHT22;12046;44.702;10.622;2022-12-07T08:51:57;8.40;99.90
23731;DHT22;12046;44.702;10.622;2022-12-07T08:54:26;8.60;99.90
23731;DHT22;12046;44.702;10.622;2022-12-07T08:56:59;8.70;99.90
23731;DHT22;12046;44.702;10.622;2022-12-07T08:59:26;8.80;99.90
23731;DHT22;12046;44.702;10.622;2022-12-07T09:01:52;9.00;99.90
23731;DHT22;12046;44.702;10.622;2022-12-07T09:04:21;8.90;99.90
23731;DHT22;12046;44.702;10.622;2022-12-07T09:06:47;9.00;99.90
23731;DHT22;12046;44.702;10.622;2022-12-07T09:09:16;9.00;99.90
23731;DHT22;12046;44.702;10.622;2022-12-07T09:11:42;9.20;99.90
23731;DHT22;12046;44.702;10.622;2022-12-07T09:14:13;9.30;99.90
23731;DHT22;12046;44.702;10.622;2022-12-07T09:16:42;9.80;99.90
23731;DHT22;12046;44.702;10.622;2022-12-07T09:19:08;10.80;99.90
23731;DHT22;12046;44.702;10.622;2022-12-07T09:21:37;11.60;99.90
23731;DHT22;12046;44.702;10.622;2022-12-07T09:24:03;12.20;99.90
23731;DHT22;12046;44.702;10.622;2022-12-07T09:26:29;12.70;99.90
23731;DHT22;12046;44.702;10.622;2022-12-07T09:28:55;13.20;99.90
23731;DHT22;12046;44.702;10.622;2022-12-07T09:31:21;13.70;99.90
23731;DHT22;12046;44.702;10.622;2022-12-07T09:33:55;13.60;99.90
23731;DHT22;12046;44.702;10.622;2022-12-07T09:36:26;13.00;99.90
23731;DHT22;12046;44.702;10.622;2022-12-07T09:38:53;12.30;99.90
23731;DHT22;12046;44.702;10.622;2022-12-07T09:41:20;11.80;99.90
23731;DHT22;12046;44.702;10.622;2022-12-07T09:43:46;11.50;99.90
23731;DHT22;12046;44.702;10.622;2022-12-07T09:46:15;11.20;99.90
23731;DHT22;12046;44.702;10.622;2022-12-07T09:48:43;10.90;99.90
23731;DHT22;12046;44.702;10.622;2022-12-07T09:51:30;10.60;99.90
23731;DHT22;12046;44.702;10.622;2022-12-07T09:53:57;10.40;99.90
23731;DHT22;12046;44.702;10.622;2022-12-07T09:56:24;10.70;99.90
23731;DHT22;12046;44.702;10.622;2022-12-07T09:58:58;11.50;99.90
23731;DHT22;12046;44.702;10.622;2022-12-07T10:01:27;12.30;99.90
23731;DHT22;12046;44.702;10.622;2022-12-07T10:04:15;12.80;99.90
23731;DHT22;12046;44.702;10.622;2022-12-07T10:06:42;13.60;99.90
23731;DHT22;12046;44.702;10.622;2022-12-07T10:09:10;13.70;99.90
23731;DHT22;12046;44.702;10.622;2022-12-07T10:12:09;14.10;99.90
23731;DHT22;12046;44.702;10.622;2022-12-07T10:14:39;14.80;99.70
23731;DHT22;12046;44.702;10.622;2022-12-07T10:17:41;14.60;99.40
23731;DHT22;12046;44.702;10.622;2022-12-07T10:20:23;14.20;99.60
23731;DHT22;12046;44.702;10.622;2022-12-07T10:23:12;14.60;99.40
23731;DHT22;12046;44.702;10.622;2022-12-07T10:25:39;14.50;99.00
23731;DHT22;12046;44.702;10.622;2022-12-07T10:28:13;14.30;99.50
23731;DHT22;12046;44.702;10.622;2022-12-07T10:30:59;14.80;99.20
23731;DHT22;12046;44.702;10.622;2022-12-07T10:33:50;14.70;98.80
23731;DHT22;12046;44.702;10.622;2022-12-07T10:38:49;13.70;99.90
23731;DHT22;12046;44.702;10.622;2022-12-07T10:41:16;14.00;99.90
23731;DHT22;12046;44.702;10.622;2022-12-07T10:43:52;14.10;99.90
23731;DHT22;12046;44.702;10.622;2022-12-07T10:49:08;13.80;99.90
23731;DHT22;12046;44.702;10.622;2022-12-07T10:51:52;13.50;99.90
23731;DHT22;12046;44.702;10.622;2022-12-07T10:57:34;13.30;99.90
23731;DHT22;12046;44.702;10.622;2022-12-07T11:00:21;13.60;99.90
23731;DHT22;12046;44.702;10.622;2022-12-07T11:03:20;13.70;99.90
23731;DHT22;12046;44.702;10.622;2022-12-07T11:08:57;15.00;99.30
23731;DHT22;12046;44.702;10.622;2022-12-07T11:11:50;16.40;97.20
23731;DHT22;12046;44.702;10.622;2022-12-07T11:14:31;18.00;96.30
23731;DHT22;12046;44.702;10.622;2022-12-07T11:17:19;20.60;92.30
23731;DHT22;12046;44.702;10.622;2022-12-07T11:25:57;23.30;81.20
23731;DHT22;12046;44.702;10.622;2022-12-07T11:36:52;23.30;81.20
23731;DHT22;12046;44.702;10.622;2022-12-07T11:41:54;23.00;79.80
23731;DHT22;12046;44.702;10.622;2022-12-07T11:53:28;20.10;84.20
23731;DHT22;12046;44.702;10.622;2022-12-07T11:56:15;19.80;85.70
23731;DHT22;12046;44.702;10.622;2022-12-07T12:03:47;17.60;89.30
23731;DHT22;12046;44.702;10.622;2022-12-07T12:06:14;16.70;90.90
23731;DHT22;12046;44.702;10.622;2022-12-07T12:16:52;17.30;91.20
23731;DHT22;12046;44.702;10.622;2022-12-07T12:19:35;19.60;88.00
23731;DHT22;12046;44.702;10.622;2022-12-07T12:22:17;21.90;81.10
23731;DHT22;12046;44.702;10.622;2022-12-07T12:24:48;22.10;80.30
23731;DHT22;12046;44.702;10.622;2022-12-07T12:27:37;22.20;79.40
23731;DHT22;12046;44.702;10.622;2022-12-07T12:30:22;21.60;79.20
23731;DHT22;12046;44.702;10.622;2022-12-07T12:32:49;20.50;81.60
23731;DHT22;12046;44.702;10.622;2022-12-07T12:37:54;18.00;88.80
23731;DHT22;12046;44.702;10.622;2022-12-07T12:42:48;16.00;92.00
23731;DHT22;12046;44.702;10.622;2022-12-07T12:50:24;15.50;93.50
23731;DHT22;12046;44.702;10.622;2022-12-07T12:53:24;16.70;92.80
23731;DHT22;12046;44.702;10.622;2022-12-07T12:56:29;18.00;90.70
23731;DHT22;12046;44.702;10.622;2022-12-07T12:59:29;20.80;85.90
23731;DHT22;12046;44.702;10.622;2022-12-07T13:05:00;24.70;75.90
23731;DHT22;12046;44.702;10.622;2022-12-07T13:15:50;28.30;64.80
23731;DHT22;12046;44.702;10.622;2022-12-07T13:33:43;28.70;57.30
23731;DHT22;12046;44.702;10.622;2022-12-07T13:36:17;28.80;57.10
23731;DHT22;12046;44.702;10.622;2022-12-07T13:38:56;28.80;56.80
23731;DHT22;12046;44.702;10.622;2022-12-07T13:41:24;28.70;56.70
23731;DHT22;12046;44.702;10.622;2022-12-07T13:44:05;28.50;56.70
23731;DHT22;12046;44.702;10.622;2022-12-07T13:49:51;28.20;57.30
23731;DHT22;12046;44.702;10.622;2022-12-07T13:52:20;28.10;57.10
23731;DHT22;12046;44.702;10.622;2022-12-07T13:54:59;28.00;56.90
23731;DHT22;12046;44.702;10.622;2022-12-07T13:57:27;27.10;56.80
23731;DHT22;12046;44.702;10.622;2022-12-07T13:59:54;25.20;59.00
23731;DHT22;12046;44.702;10.622;2022-12-07T14:05:33;20.40;66.90
23731;DHT22;12046;44.702;10.622;2022-12-07T14:10:32;16.30;77.20
23731;DHT22;12046;44.702;10.622;2022-12-07T14:13:00;15.00;82.00
23731;DHT22;12046;44.702;10.622;2022-12-07T14:15:32;14.10;86.00
23731;DHT22;12046;44.702;10.622;2022-12-07T14:18:00;13.40;89.60
23731;DHT22;12046;44.702;10.622;2022-12-07T14:20:38;13.00;91.00
23731;DHT22;12046;44.702;10.622;2022-12-07T14:23:06;12.90;91.80
23731;DHT22;12046;44.702;10.622;2022-12-07T14:25:50;12.70;92.10
23731;DHT22;12046;44.702;10.622;2022-12-07T14:28:32;12.40;93.00
23731;DHT22;12046;44.702;10.622;2022-12-07T14:31:00;12.00;94.20
23731;DHT22;12046;44.702;10.622;2022-12-07T14:33:27;12.20;94.90
23731;DHT22;12046;44.702;10.622;2022-12-07T14:35:54;12.90;94.10
23731;DHT22;12046;44.702;10.622;2022-12-07T14:38:21;13.40;93.30
23731;DHT22;12046;44.702;10.622;2022-12-07T14:40:48;14.10;92.70
23731;DHT22;12046;44.702;10.622;2022-12-07T14:43:16;15.20;91.30
23731;DHT22;12046;44.702;10.622;2022-12-07T14:45:43;16.10;89.60
23731;DHT22;12046;44.702;10.622;2022-12-07T14:48:13;16.30;87.80
23731;DHT22;12046;44.702;10.622;2022-12-07T14:50:49;15.40;88.50
23731;DHT22;12046;44.702;10.622;2022-12-07T14:53:19;14.30;90.80
23731;DHT22;12046;44.702;10.622;2022-12-07T14:55:50;13.10;92.40
23731;DHT22;12046;44.702;10.622;2022-12-07T14:58:17;12.20;94.10
23731;DHT22;12046;44.702;10.622;2022-12-07T15:00:44;11.50;95.70
23731;DHT22;12046;44.702;10.622;2022-12-07T15:03:10;10.90;97.10
23731;DHT22;12046;44.702;10.622;2022-12-07T15:05:39;10.40;98.30
23731;DHT22;12046;44.702;10.622;2022-12-07T15:08:05;9.90;99.70
23731;DHT22;12046;44.702;10.622;2022-12-07T15:10:33;9.60;99.90
23731;DHT22;12046;44.702;10.622;2022-12-07T15:13:01;9.30;99.90
23731;DHT22;12046;44.702;10.622;2022-12-07T15:15:50;9.10;99.90
23731;DHT22;12046;44.702;10.622;2022-12-07T15:18:18;8.80;99.90
23731;DHT22;12046;44.702;10.622;2022-12-07T15:20:45;8.70;99.90
23731;DHT22;12046;44.702;10.622;2022-12-07T15:23:12;8.60;99.90
23731;DHT22;12046;44.702;10.622;2022-12-07T15:25:46;8.40;99.90
23731;DHT22;12046;44.702;10.622;2022-12-07T15:28:13;8.30;99.90
23731;DHT22;12046;44.702;10.622;2022-12-07T15:30:41;8.20;99.90
23731;DHT22;12046;44.702;10.622;2022-12-07T15:33:08;8.00;99.90
23731;DHT22;12046;44.702;10.622;2022-12-07T15:35:39;8.00;99.90
23731;DHT22;12046;44.702;10.622;2022-12-07T15:38:05;8.00;99.90
23731;DHT22;12046;44.702;10.622;2022-12-07T15:40:32;7.90;99.90
23731;DHT22;12046;44.702;10.622;2022-12-07T15:42:58;7.80;99.90
23731;DHT22;12046;44.702;10.622;2022-12-07T15:45:24;7.70;99.90
23731;DHT22;12046;44.702;10.622;2022-12-07T15:47:50;7.70;99.90
23731;DHT22;12046;44.702;10.622;2022-12-07T15:50:16;7.70;99.90
23731;DHT22;12046;44.702;10.622;2022-12-07T15:52:43;7.70;99.90
23731;DHT22;12046;44.702;10.622;2022-12-07T15:55:10;7.50;99.90
23731;DHT22;12046;44.702;10.622;2022-12-07T15:57:37;7.50;99.90
23731;DHT22;12046;44.702;10.622;2022-12-07T16:00:05;7.40;99.90
23731;DHT22;12046;44.702;10.622;2022-12-07T16:02:31;7.30;99.90
23731;DHT22;12046;44.702;10.622;2022-12-07T16:04:57;7.30;99.90
23731;DHT22;12046;44.702;10.622;2022-12-07T16:07:23;7.30;99.90
23731;DHT22;12046;44.702;10.622;2022-12-07T16:09:50;7.30;99.90
23731;DHT22;12046;44.702;10.622;2022-12-07T16:12:16;7.30;99.90
23731;DHT22;12046;44.702;10.622;2022-12-07T16:14:42;7.30;99.90
23731;DHT22;12046;44.702;10.622;2022-12-07T16:17:09;7.20;99.90
23731;DHT22;12046;44.702;10.622;2022-12-07T16:19:36;7.20;99.90
23731;DHT22;12046;44.702;10.622;2022-12-07T16:22:03;7.20;99.90
23731;DHT22;12046;44.702;10.622;2022-12-07T16:24:30;7.20;99.90
23731;DHT22;12046;44.702;10.622;2022-12-07T16:26:56;7.20;99.90
23731;DHT22;12046;44.702;10.622;2022-12-07T16:29:23;7.20;99.90
23731;DHT22;12046;44.702;10.622;2022-12-07T16:31:50;7.20;99.90
23731;DHT22;12046;44.702;10.622;2022-12-07T16:34:17;7.10;99.90
23731;DHT22;12046;44.702;10.622;2022-12-07T16:36:43;7.20;99.90
23731;DHT22;12046;44.702;10.622;2022-12-07T16:39:09;7.20;99.90
23731;DHT22;12046;44.702;10.622;2022-12-07T16:41:36;7.20;99.90
23731;DHT22;12046;44.702;10.622;2022-12-07T16:44:04;7.20;99.90
23731;DHT22;12046;44.702;10.622;2022-12-07T16:46:34;7.20;99.90
23731;DHT22;12046;44.702;10.622;2022-12-07T16:49:02;7.20;99.90
23731;DHT22;12046;44.702;10.622;2022-12-07T16:51:29;7.20;99.90
23731;DHT22;12046;44.702;10.622;2022-12-07T16:53:55;7.20;99.90
23731;DHT22;12046;44.702;10.622;2022-12-07T16:56:21;7.20;99.90
23731;DHT22;12046;44.702;10.622;2022-12-07T16:58:48;7.30;99.90
23731;DHT22;12046;44.702;10.622;2022-12-07T17:01:20;7.20;99.90
23731;DHT22;12046;44.702;10.622;2022-12-07T17:03:48;7.20;99.90
23731;DHT22;12046;44.702;10.622;2022-12-07T17:06:17;7.20;99.90
23731;DHT22;12046;44.702;10.622;2022-12-07T17:08:44;7.10;99.90
23731;DHT22;12046;44.702;10.622;2022-12-07T17:11:18;7.10;99.90
23731;DHT22;12046;44.702;10.622;2022-12-07T17:13:44;7.10;99.90
23731;DHT22;12046;44.702;10.622;2022-12-07T17:16:29;7.10;99.90
23731;DHT22;12046;44.702;10.622;2022-12-07T17:18:56;7.10;99.90
23731;DHT22;12046;44.702;10.622;2022-12-07T17:21:22;7.00;99.90
23731;DHT22;12046;44.702;10.622;2022-12-07T17:23:49;7.00;99.90
23731;DHT22;12046;44.702;10.622;2022-12-07T17:26:19;6.90;99.90
23731;DHT22;12046;44.702;10.622;2022-12-07T17:28:45;6.70;99.90
23731;DHT22;12046;44.702;10.622;2022-12-07T17:31:13;6.60;99.90
23731;DHT22;12046;44.702;10.622;2022-12-07T17:33:39;6.50;99.90
23731;DHT22;12046;44.702;10.622;2022-12-07T17:36:17;6.40;99.90
23731;DHT22;12046;44.702;10.622;2022-12-07T17:38:43;6.50;99.90
23731;DHT22;12046;44.702;10.622;2022-12-07T17:41:15;6.50;99.90
23731;DHT22;12046;44.702;10.622;2022-12-07T17:44:01;6.50;99.90
23731;DHT22;12046;44.702;10.622;2022-12-07T17:46:27;6.60;99.90
23731;DHT22;12046;44.702;10.622;2022-12-07T17:48:54;6.60;99.90
23731;DHT22;12046;44.702;10.622;2022-12-07T17:51:20;6.60;99.90
23731;DHT22;12046;44.702;10.622;2022-12-07T17:54:05;6.60;99.90